createdAt,value
2017-04-26T00:00:50.493Z,0
2017-04-26T00:02:00.429Z,0
2017-04-26T00:03:10.365Z,0
2017-04-26T00:04:20.630Z,0
2017-04-26T00:05:30.884Z,0
2017-04-26T00:06:41.143Z,0
2017-04-26T00:07:51.399Z,0
2017-04-26T00:09:01.657Z,0
2017-04-26T00:10:11.911Z,0
2017-04-26T00:11:21.851Z,0
2017-04-26T00:12:31.793Z,0
2017-04-26T00:13:41.747Z,0
2017-04-26T00:14:52.007Z,0
2017-04-26T00:16:02.291Z,0
2017-04-26T00:17:12.232Z,0
2017-04-26T00:18:22.493Z,0
2017-04-26T00:19:32.748Z,0
2017-04-26T00:20:43.017Z,0
2017-04-26T00:21:53.277Z,0
2017-04-26T00:23:03.535Z,0
2017-04-26T00:24:13.785Z,0
2017-04-26T00:25:24.037Z,0
2017-04-26T00:26:33.974Z,0
2017-04-26T00:27:44.223Z,0
2017-04-26T00:28:54.477Z,0
2017-04-26T00:30:04.431Z,0
2017-04-26T00:31:14.686Z,0
2017-04-26T00:32:24.938Z,0
2017-04-26T00:33:35.192Z,0
2017-04-26T00:34:45.458Z,0
2017-04-26T00:35:55.399Z,0
2017-04-26T00:37:05.652Z,0
2017-04-26T00:38:15.920Z,0
2017-04-26T00:39:26.186Z,0
2017-04-26T00:40:36.437Z,0
2017-04-26T00:41:46.686Z,0
2017-04-26T00:42:56.938Z,0
2017-04-26T00:44:07.196Z,0
2017-04-26T00:45:17.450Z,0
2017-04-26T00:46:27.699Z,0
2017-04-26T00:47:37.954Z,0
2017-04-26T00:48:48.211Z,0
2017-04-26T00:49:58.468Z,0
2017-04-26T00:51:08.730Z,0
2017-04-26T00:52:18.993Z,0
2017-04-26T00:53:29.248Z,0
2017-04-26T00:54:38.881Z,0
2017-04-26T00:55:49.139Z,0
2017-04-26T00:56:59.403Z,0
2017-04-26T00:58:09.660Z,0
2017-04-26T00:59:19.910Z,0
2017-04-26T01:00:30.171Z,0
2017-04-26T01:01:40.420Z,0
2017-04-26T01:02:50.357Z,0
2017-04-26T01:04:00.617Z,0
2017-04-26T01:05:10.871Z,0
2017-04-26T01:06:20.809Z,0
2017-04-26T01:07:30.747Z,0
2017-04-26T01:08:40.692Z,0
2017-04-26T01:09:50.946Z,0
2017-04-26T01:11:01.198Z,0
2017-04-26T01:12:11.139Z,0
2017-04-26T01:13:21.392Z,0
2017-04-26T01:14:31.334Z,0
2017-04-26T01:15:41.590Z,0
2017-04-26T01:16:51.526Z,0
2017-04-26T01:18:01.785Z,0
2017-04-26T01:19:12.035Z,0
2017-04-26T01:20:22.294Z,0
2017-04-26T01:21:32.562Z,0
2017-04-26T01:22:42.816Z,0
2017-04-26T01:23:52.764Z,0
2017-04-26T01:25:03.015Z,0
2017-04-26T01:26:13.269Z,0
2017-04-26T01:27:23.522Z,0
2017-04-26T01:28:33.786Z,0
2017-04-26T01:29:44.041Z,0
2017-04-26T01:30:54.303Z,0
2017-04-26T01:32:04.555Z,0
2017-04-26T01:33:14.176Z,0
2017-04-26T01:34:24.435Z,0
2017-04-26T01:35:34.700Z,0
2017-04-26T01:36:44.965Z,0
2017-04-26T01:37:55.222Z,0
2017-04-26T01:39:05.161Z,0
2017-04-26T01:40:15.415Z,0
2017-04-26T01:41:25.669Z,0
2017-04-26T01:42:35.921Z,0
2017-04-26T01:43:46.190Z,0
2017-04-26T01:44:56.454Z,0
2017-04-26T01:46:06.715Z,0
2017-04-26T01:47:16.655Z,0
2017-04-26T01:48:26.913Z,0
2017-04-26T01:49:36.856Z,0
2017-04-26T01:50:47.117Z,0
2017-04-26T01:51:57.365Z,0
2017-04-26T01:53:07.619Z,0
2017-04-26T01:54:17.868Z,0
2017-04-26T01:55:27.504Z,0
2017-04-26T01:56:37.755Z,0
2017-04-26T01:57:48.018Z,0
2017-04-26T01:58:58.270Z,0
2017-04-26T02:00:08.209Z,0
2017-04-26T02:01:18.156Z,0
2017-04-26T02:02:28.404Z,0
2017-04-26T02:03:38.659Z,0
2017-04-26T02:04:48.600Z,0
2017-04-26T02:05:58.855Z,0
2017-04-26T02:07:09.112Z,0
2017-04-26T02:08:19.067Z,0
2017-04-26T02:09:29.322Z,0
2017-04-26T02:10:39.294Z,0
2017-04-26T02:11:49.570Z,0
2017-04-26T02:12:59.870Z,0
2017-04-26T02:14:09.813Z,0
2017-04-26T02:15:19.755Z,0
2017-04-26T02:16:30.011Z,0
2017-04-26T02:17:40.277Z,0
2017-04-26T02:18:50.530Z,0
2017-04-26T02:20:00.795Z,0
2017-04-26T02:21:10.737Z,0
2017-04-26T02:22:20.679Z,0
2017-04-26T02:23:30.938Z,0
2017-04-26T02:24:41.195Z,0
2017-04-26T02:25:51.452Z,0
2017-04-26T02:27:01.390Z,0
2017-04-26T02:28:11.021Z,0
2017-04-26T02:29:21.278Z,0
2017-04-26T02:30:31.546Z,0
2017-04-26T02:31:41.811Z,0
2017-04-26T02:32:52.068Z,0
2017-04-26T02:34:02.323Z,0
2017-04-26T02:35:12.260Z,0
2017-04-26T02:36:22.221Z,0
2017-04-26T02:37:32.473Z,4
2017-04-26T02:38:42.728Z,4
2017-04-26T02:39:52.978Z,0
2017-04-26T02:41:03.236Z,0
2017-04-26T02:42:13.178Z,4
2017-04-26T02:43:23.434Z,4
2017-04-26T02:44:33.371Z,4
2017-04-26T02:45:43.621Z,4
2017-04-26T02:46:53.875Z,8
2017-04-26T02:48:03.817Z,4
2017-04-26T02:49:14.075Z,4
2017-04-26T02:50:24.326Z,8
2017-04-26T02:51:34.578Z,8
2017-04-26T02:52:44.516Z,8
2017-04-26T02:53:54.774Z,12
2017-04-26T02:55:05.031Z,12
2017-04-26T02:56:14.967Z,16
2017-04-26T02:57:25.213Z,16
2017-04-26T02:58:35.470Z,20
2017-04-26T02:59:45.730Z,20
2017-04-26T03:00:55.976Z,24
2017-04-26T03:02:06.225Z,24
2017-04-26T03:03:16.163Z,32
2017-04-26T03:04:26.416Z,36
2017-04-26T03:05:36.669Z,40
2017-04-26T03:06:46.927Z,48
2017-04-26T03:07:56.874Z,52
2017-04-26T03:09:07.158Z,56
2017-04-26T03:10:17.097Z,64
2017-04-26T03:11:27.353Z,72
2017-04-26T03:12:37.599Z,80
2017-04-26T03:13:47.545Z,88
2017-04-26T03:14:57.800Z,100
2017-04-26T03:16:08.078Z,108
2017-04-26T03:17:18.580Z,120
2017-04-26T03:18:28.520Z,132
2017-04-26T03:19:38.773Z,144
2017-04-26T03:20:48.717Z,160
2017-04-26T03:21:59.003Z,172
2017-04-26T03:23:09.256Z,188
2017-04-26T03:24:18.880Z,204
2017-04-26T03:25:29.137Z,228
2017-04-26T03:26:39.402Z,244
2017-04-26T03:27:49.661Z,264
2017-04-26T03:28:59.933Z,284
2017-04-26T03:30:10.192Z,304
2017-04-26T03:31:19.816Z,328
2017-04-26T03:32:30.067Z,348
2017-04-26T03:33:40.326Z,376
2017-04-26T03:34:50.581Z,400
2017-04-26T03:36:00.841Z,428
2017-04-26T03:37:10.783Z,456
2017-04-26T03:38:21.044Z,488
2017-04-26T03:39:31.299Z,516
2017-04-26T03:40:41.242Z,552
2017-04-26T03:41:51.499Z,588
2017-04-26T03:43:01.754Z,616
2017-04-26T03:44:12.034Z,652
2017-04-26T03:45:22.301Z,684
2017-04-26T03:46:32.236Z,720
2017-04-26T03:47:42.488Z,756
2017-04-26T03:48:52.739Z,788
2017-04-26T03:50:02.998Z,828
2017-04-26T03:51:12.938Z,860
2017-04-26T03:52:23.189Z,896
2017-04-26T03:53:33.138Z,932
2017-04-26T03:54:43.393Z,972
2017-04-26T03:55:53.646Z,1008
2017-04-26T03:57:03.904Z,1044
2017-04-26T03:58:13.842Z,1080
2017-04-26T03:59:24.100Z,1120
2017-04-26T04:00:34.356Z,1156
2017-04-26T04:01:44.298Z,1192
2017-04-26T04:02:54.548Z,1228
2017-04-26T04:04:04.803Z,1264
2017-04-26T04:05:14.745Z,1300
2017-04-26T04:06:24.996Z,1336
2017-04-26T04:07:35.241Z,1372
2017-04-26T04:08:45.496Z,1408
2017-04-26T04:09:55.766Z,1444
2017-04-26T04:11:06.031Z,1484
2017-04-26T04:12:16.317Z,1520
2017-04-26T04:13:26.567Z,1552
2017-04-26T04:14:36.820Z,1592
2017-04-26T04:15:46.759Z,1624
2017-04-26T04:16:57.012Z,1660
2017-04-26T04:18:07.275Z,1700
2017-04-26T04:19:17.541Z,1732
2017-04-26T04:20:27.812Z,1764
2017-04-26T04:21:38.063Z,1796
2017-04-26T04:22:48.317Z,1832
2017-04-26T04:23:58.563Z,1868
2017-04-26T04:25:08.819Z,1904
2017-04-26T04:26:18.757Z,1936
2017-04-26T04:27:29.021Z,1976
2017-04-26T04:28:38.961Z,2008
2017-04-26T04:29:49.216Z,2048
2017-04-26T04:30:59.166Z,2084
2017-04-26T04:32:09.423Z,2116
2017-04-26T04:33:19.044Z,2152
2017-04-26T04:34:29.300Z,2192
2017-04-26T04:35:39.242Z,2224
2017-04-26T04:36:49.499Z,2260
2017-04-26T04:37:59.757Z,2292
2017-04-26T04:39:10.004Z,2328
2017-04-26T04:40:19.635Z,2360
2017-04-26T04:41:29.576Z,2392
2017-04-26T04:42:39.831Z,2424
2017-04-26T04:43:50.084Z,2440
2017-04-26T04:45:00.350Z,2236
2017-04-26T04:46:10.298Z,2292
2017-04-26T04:47:20.238Z,2528
2017-04-26T04:48:30.494Z,2556
2017-04-26T04:49:40.433Z,2588
2017-04-26T04:50:50.684Z,2612
2017-04-26T04:52:00.625Z,2588
2017-04-26T04:53:10.903Z,2640
2017-04-26T04:54:21.160Z,2712
2017-04-26T04:55:31.412Z,2740
2017-04-26T04:56:41.355Z,2768
2017-04-26T04:57:51.609Z,2796
2017-04-26T04:59:01.860Z,2824
2017-04-26T05:00:12.114Z,2848
2017-04-26T05:01:22.366Z,2868
2017-04-26T05:02:32.628Z,2868
2017-04-26T05:03:42.893Z,2888
2017-04-26T05:04:53.152Z,2920
2017-04-26T05:06:03.401Z,2948
2017-04-26T05:07:13.352Z,2916
2017-04-26T05:08:23.612Z,2996
2017-04-26T05:09:33.870Z,3024
2017-04-26T05:10:44.119Z,2788
2017-04-26T05:11:54.372Z,2676
2017-04-26T05:13:04.626Z,3052
2017-04-26T05:14:14.564Z,3096
2017-04-26T05:15:24.817Z,3120
2017-04-26T05:16:35.071Z,3140
2017-04-26T05:17:45.329Z,3164
2017-04-26T05:18:55.592Z,3180
2017-04-26T05:20:05.537Z,3200
2017-04-26T05:21:15.175Z,3216
2017-04-26T05:22:25.426Z,3232
2017-04-26T05:23:35.678Z,3256
2017-04-26T05:24:45.933Z,3276
2017-04-26T05:25:55.878Z,3292
2017-04-26T05:27:06.127Z,3312
2017-04-26T05:28:16.384Z,3332
2017-04-26T05:29:26.646Z,3348
2017-04-26T05:30:36.903Z,3368
2017-04-26T05:31:47.155Z,3380
2017-04-26T05:32:57.412Z,3400
2017-04-26T05:34:07.676Z,3416
2017-04-26T05:35:17.940Z,3440
2017-04-26T05:36:28.198Z,3456
2017-04-26T05:37:38.450Z,3476
2017-04-26T05:38:48.701Z,3492
2017-04-26T05:39:58.656Z,3508
2017-04-26T05:41:08.910Z,3524
2017-04-26T05:42:18.854Z,3536
2017-04-26T05:43:29.129Z,3556
2017-04-26T05:44:39.385Z,3572
2017-04-26T05:45:49.652Z,3588
2017-04-26T05:46:59.915Z,3604
2017-04-26T05:48:10.181Z,3624
2017-04-26T05:49:20.118Z,3644
2017-04-26T05:50:30.062Z,3660
2017-04-26T05:51:40.325Z,3676
2017-04-26T05:52:50.576Z,3696
2017-04-26T05:54:00.524Z,3716
2017-04-26T05:55:10.787Z,3732
2017-04-26T05:56:21.044Z,3748
2017-04-26T05:57:30.984Z,3768
2017-04-26T05:58:41.241Z,3792
2017-04-26T05:59:51.495Z,3808
2017-04-26T06:01:01.441Z,3832
2017-04-26T06:02:11.386Z,3820
2017-04-26T06:03:21.650Z,3864
2017-04-26T06:04:31.586Z,3884
2017-04-26T06:05:41.839Z,3900
2017-04-26T06:06:52.103Z,3916
2017-04-26T06:08:02.354Z,3940
2017-04-26T06:09:12.301Z,3956
2017-04-26T06:10:22.562Z,3976
2017-04-26T06:11:32.823Z,3996
2017-04-26T06:12:43.085Z,4012
2017-04-26T06:13:53.031Z,4032
2017-04-26T06:15:03.288Z,4052
2017-04-26T06:16:12.913Z,4068
2017-04-26T06:17:23.176Z,4084
2017-04-26T06:18:33.434Z,4104
2017-04-26T06:19:43.684Z,4124
2017-04-26T06:20:53.939Z,4140
2017-04-26T06:22:04.209Z,4160
2017-04-26T06:23:14.152Z,4180
2017-04-26T06:24:24.404Z,4200
2017-04-26T06:25:34.685Z,4228
2017-04-26T06:26:44.943Z,4272
2017-04-26T06:27:55.236Z,4308
2017-04-26T06:29:05.496Z,4292
2017-04-26T06:30:15.919Z,4308
2017-04-26T06:31:26.176Z,4324
2017-04-26T06:32:36.437Z,4344
2017-04-26T06:33:46.703Z,4360
2017-04-26T06:34:56.955Z,4380
2017-04-26T06:36:07.213Z,4240
2017-04-26T06:37:16.838Z,4260
2017-04-26T06:38:27.098Z,4344
2017-04-26T06:39:37.355Z,4472
2017-04-26T06:40:47.611Z,4488
2017-04-26T06:41:57.867Z,4508
2017-04-26T06:43:08.122Z,4536
2017-04-26T06:44:18.377Z,4560
2017-04-26T06:45:28.328Z,4580
2017-04-26T06:46:38.580Z,4608
2017-04-26T06:47:48.522Z,4628
2017-04-26T06:48:58.776Z,4648
2017-04-26T06:50:08.716Z,4676
2017-04-26T06:51:18.969Z,4704
2017-04-26T06:52:28.906Z,4728
2017-04-26T06:53:39.162Z,4752
2017-04-26T06:54:49.414Z,4784
2017-04-26T06:55:59.673Z,4816
2017-04-26T06:57:09.928Z,4836
2017-04-26T06:58:20.188Z,4848
2017-04-26T06:59:30.439Z,4872
2017-04-26T07:00:40.378Z,4900
2017-04-26T07:01:50.325Z,4928
2017-04-26T07:03:00.576Z,4952
2017-04-26T07:04:10.527Z,4984
2017-04-26T07:05:20.468Z,5008
2017-04-26T07:06:30.721Z,5032
2017-04-26T07:07:41.008Z,5056
2017-04-26T07:08:51.281Z,5080
2017-04-26T07:10:01.541Z,5104
2017-04-26T07:11:11.799Z,5136
2017-04-26T07:12:21.430Z,5160
2017-04-26T07:13:31.687Z,5196
2017-04-26T07:14:41.953Z,5224
2017-04-26T07:15:52.214Z,5248
2017-04-26T07:17:02.471Z,5276
2017-04-26T07:18:12.727Z,5308
2017-04-26T07:19:22.666Z,5344
2017-04-26T07:20:32.609Z,5372
2017-04-26T07:21:42.553Z,5412
2017-04-26T07:22:52.814Z,5436
2017-04-26T07:24:03.064Z,5484
2017-04-26T07:25:13.320Z,5520
2017-04-26T07:26:23.578Z,5564
2017-04-26T07:27:33.521Z,5592
2017-04-26T07:28:43.809Z,5624
2017-04-26T07:29:54.061Z,5656
2017-04-26T07:31:04.322Z,5708
2017-04-26T07:32:14.324Z,5744
2017-04-26T07:33:24.274Z,5784
2017-04-26T07:34:34.541Z,5828
2017-04-26T07:35:44.790Z,5868
2017-04-26T07:36:55.052Z,5904
2017-04-26T07:38:05.309Z,5944
2017-04-26T07:39:14.633Z,5988
2017-04-26T07:40:24.577Z,6032
2017-04-26T07:41:34.830Z,6088
2017-04-26T07:42:45.083Z,6156
2017-04-26T07:43:55.026Z,6220
2017-04-26T07:45:05.280Z,6264
2017-04-26T07:46:15.228Z,6288
2017-04-26T07:47:25.176Z,6316
2017-04-26T07:48:35.436Z,6324
2017-04-26T07:49:45.689Z,6360
2017-04-26T07:50:55.631Z,6380
2017-04-26T07:52:05.571Z,6420
2017-04-26T07:53:15.826Z,6448
2017-04-26T07:54:26.082Z,6472
2017-04-26T07:55:36.333Z,6496
2017-04-26T07:56:46.594Z,6540
2017-04-26T07:57:56.843Z,6572
2017-04-26T07:59:07.092Z,6604
2017-04-26T08:00:17.034Z,6640
2017-04-26T08:01:27.297Z,6688
2017-04-26T08:02:37.634Z,6732
2017-04-26T08:03:47.919Z,6776
2017-04-26T08:04:58.182Z,6808
2017-04-26T08:06:08.445Z,6836
2017-04-26T08:07:18.383Z,6884
2017-04-26T08:08:28.638Z,6936
2017-04-26T08:09:38.889Z,6980
2017-04-26T08:10:49.142Z,7040
2017-04-26T08:11:59.401Z,7060
2017-04-26T08:13:09.655Z,7096
2017-04-26T08:14:19.596Z,7108
2017-04-26T08:15:29.228Z,7124
2017-04-26T08:16:39.482Z,7160
2017-04-26T08:17:49.731Z,7208
2017-04-26T08:18:59.993Z,7240
2017-04-26T08:20:09.936Z,7296
2017-04-26T08:21:20.200Z,7380
2017-04-26T08:22:30.456Z,7432
2017-04-26T08:23:40.119Z,7468
2017-04-26T08:24:50.373Z,7516
2017-04-26T08:26:00.627Z,7540
2017-04-26T08:27:10.883Z,7580
2017-04-26T08:28:20.227Z,7628
2017-04-26T08:29:30.200Z,7684
2017-04-26T08:30:40.457Z,7716
2017-04-26T08:31:50.710Z,7760
2017-04-26T08:33:00.968Z,7808
2017-04-26T08:34:11.226Z,7844
2017-04-26T08:35:21.484Z,7908
2017-04-26T08:36:31.741Z,7988
2017-04-26T08:37:42.000Z,8048
2017-04-26T08:38:52.320Z,8056
2017-04-26T08:40:02.576Z,8024
2017-04-26T08:41:12.526Z,8000
2017-04-26T08:42:22.157Z,7996
2017-04-26T08:43:32.405Z,8036
2017-04-26T08:44:42.669Z,8124
2017-04-26T08:45:52.924Z,8216
2017-04-26T08:47:03.181Z,8284
2017-04-26T08:48:13.435Z,8324
2017-04-26T08:49:23.686Z,8344
2017-04-26T08:50:33.947Z,8356
2017-04-26T08:51:44.201Z,8356
2017-04-26T08:52:54.458Z,8360
2017-04-26T08:54:04.716Z,8408
2017-04-26T08:55:14.656Z,8492
2017-04-26T08:56:24.912Z,8596
2017-04-26T08:57:34.547Z,8764
2017-04-26T08:58:44.802Z,8940
2017-04-26T08:59:55.063Z,9120
2017-04-26T09:01:05.321Z,9360
2017-04-26T09:02:14.952Z,9576
2017-04-26T09:03:24.898Z,9724
2017-04-26T09:04:34.842Z,9804
2017-04-26T09:05:45.095Z,9888
2017-04-26T09:06:55.351Z,10008
2017-04-26T09:08:05.299Z,10064
2017-04-26T09:09:14.928Z,10024
2017-04-26T09:10:25.181Z,9972
2017-04-26T09:11:35.437Z,10000
2017-04-26T09:12:45.722Z,10152
2017-04-26T09:13:55.974Z,10192
2017-04-26T09:15:06.237Z,10228
2017-04-26T09:16:16.500Z,10292
2017-04-26T09:17:26.755Z,10348
2017-04-26T09:18:37.019Z,10292
2017-04-26T09:19:49.276Z,9932
2017-04-26T09:20:59.535Z,9452
2017-04-26T09:22:09.799Z,9164
2017-04-26T09:23:19.467Z,9292
2017-04-26T09:24:29.719Z,9720
2017-04-26T09:25:42.287Z,9824
2017-04-26T09:26:52.228Z,9920
2017-04-26T09:28:02.486Z,10128
2017-04-26T09:29:12.750Z,10348
2017-04-26T09:30:23.005Z,10044
2017-04-26T09:31:32.945Z,9924
2017-04-26T09:32:43.204Z,9980
2017-04-26T09:33:53.458Z,9996
2017-04-26T09:35:03.715Z,10348
2017-04-26T09:36:13.972Z,10648
2017-04-26T09:37:24.244Z,10852
2017-04-26T09:38:34.508Z,10796
2017-04-26T09:39:44.764Z,10628
2017-04-26T09:40:55.032Z,10560
2017-04-26T09:42:05.296Z,10332
2017-04-26T09:43:15.249Z,10356
2017-04-26T09:44:25.207Z,10308
2017-04-26T09:45:35.154Z,10280
2017-04-26T09:46:45.411Z,10912
2017-04-26T09:47:55.666Z,11100
2017-04-26T09:49:05.928Z,11360
2017-04-26T09:50:16.192Z,11184
2017-04-26T09:51:26.133Z,10660
2017-04-26T09:52:36.391Z,9976
2017-04-26T09:53:46.644Z,9520
2017-04-26T09:54:56.892Z,9516
2017-04-26T09:56:07.148Z,9480
2017-04-26T09:57:16.779Z,9428
2017-04-26T09:58:27.038Z,9476
2017-04-26T09:59:37.294Z,9440
2017-04-26T10:00:47.549Z,9432
2017-04-26T10:01:57.806Z,9412
2017-04-26T10:03:08.061Z,9404
2017-04-26T10:04:18.001Z,9400
2017-04-26T10:05:28.255Z,9388
2017-04-26T10:06:38.198Z,9452
2017-04-26T10:07:48.453Z,9500
2017-04-26T10:08:58.704Z,9592
2017-04-26T10:10:08.647Z,9752
2017-04-26T10:11:18.277Z,9904
2017-04-26T10:12:28.535Z,10312
2017-04-26T10:13:38.793Z,10964
2017-04-26T10:15:10.701Z,12100
2017-04-26T10:16:20.961Z,12448
2017-04-26T10:17:31.225Z,12192
2017-04-26T10:18:41.486Z,11868
2017-04-26T10:19:51.433Z,11376
2017-04-26T10:21:01.691Z,10576
2017-04-26T10:22:11.952Z,9880
2017-04-26T10:23:21.897Z,9972
2017-04-26T10:24:32.149Z,10232
2017-04-26T10:25:42.088Z,9804
2017-04-26T10:26:52.352Z,9540
2017-04-26T10:28:54.095Z,9536
2017-04-26T10:30:10.903Z,9652
2017-04-26T10:31:20.856Z,9836
2017-04-26T10:32:31.115Z,10084
2017-04-26T10:33:41.372Z,8088
2017-04-26T10:34:52.984Z,10308
2017-04-26T10:36:03.501Z,10288
2017-04-26T10:37:13.963Z,10224
2017-04-26T10:38:24.218Z,10124
2017-04-26T10:39:34.166Z,9444
2017-04-26T10:40:44.426Z,9988
2017-04-26T10:41:54.688Z,9868
2017-04-26T10:43:04.946Z,10000
2017-04-26T10:44:14.897Z,9872
2017-04-26T10:45:25.162Z,10376
2017-04-26T10:46:35.419Z,10240
2017-04-26T10:47:45.678Z,10016
2017-04-26T10:48:55.616Z,10004
2017-04-26T10:50:05.873Z,10060
2017-04-26T10:51:15.504Z,9948
2017-04-26T10:52:25.763Z,9812
2017-04-26T10:53:36.018Z,9704
2017-04-26T10:54:46.270Z,9652
2017-04-26T10:55:56.524Z,9644
2017-04-26T10:57:06.788Z,9652
2017-04-26T10:58:17.045Z,9692
2017-04-26T10:59:27.319Z,9736
2017-04-26T11:00:37.580Z,9772
2017-04-26T11:01:47.854Z,9800
2017-04-26T11:02:57.795Z,9824
2017-04-26T11:04:08.053Z,9864
2017-04-26T11:05:17.991Z,9912
2017-04-26T11:06:28.249Z,9960
2017-04-26T11:07:38.191Z,10052
2017-04-26T11:08:48.451Z,10144
2017-04-26T11:09:58.713Z,10232
2017-04-26T11:11:08.964Z,10320
2017-04-26T11:12:18.631Z,10440
2017-04-26T11:13:28.894Z,10580
2017-04-26T11:14:39.149Z,10836
2017-04-26T11:15:49.410Z,11164
2017-04-26T11:16:59.664Z,11612
2017-04-26T11:18:09.921Z,12208
2017-04-26T11:19:19.868Z,13176
2017-04-26T11:20:30.123Z,14576
2017-04-26T11:21:40.384Z,17568
2017-04-26T11:22:55.696Z,49984
2017-04-26T11:24:06.513Z,78656
2017-04-26T11:25:16.462Z,69152
2017-04-26T11:26:26.408Z,51328
2017-04-26T11:27:36.669Z,64064
2017-04-26T11:28:46.944Z,64768
2017-04-26T11:29:57.201Z,72800
2017-04-26T11:31:07.469Z,83264
2017-04-26T11:32:17.739Z,82304
2017-04-26T11:33:27.695Z,82368
2017-04-26T11:34:37.960Z,79392
2017-04-26T11:35:48.252Z,73728
2017-04-26T11:36:58.521Z,59648
2017-04-26T11:38:08.794Z,79808
2017-04-26T11:39:18.746Z,73408
2017-04-26T11:40:29.012Z,68768
2017-04-26T11:41:38.970Z,72480
2017-04-26T11:42:49.237Z,76000
2017-04-26T11:43:59.512Z,76736
2017-04-26T11:45:09.787Z,76064
2017-04-26T11:46:20.056Z,77792
2017-04-26T11:47:30.329Z,81536
2017-04-26T11:48:39.991Z,81312
2017-04-26T11:49:49.959Z,76672
2017-04-26T11:51:00.233Z,77696
2017-04-26T11:52:10.194Z,77120
2017-04-26T11:53:20.471Z,72128
2017-04-26T11:54:30.743Z,72928
2017-04-26T11:55:41.031Z,70976
2017-04-26T11:56:51.309Z,67104
2017-04-26T11:58:01.582Z,75456
2017-04-26T11:59:11.860Z,87744
2017-04-26T12:00:21.816Z,91424
2017-04-26T12:01:31.784Z,91424
2017-04-26T12:02:42.058Z,75776
2017-04-26T12:03:52.332Z,62400
2017-04-26T12:05:02.606Z,92576
2017-04-26T12:06:12.876Z,18816
2017-04-26T12:07:23.156Z,91488
2017-04-26T12:08:33.428Z,87072
2017-04-26T12:09:43.702Z,85376
2017-04-26T12:10:53.355Z,93888
2017-04-26T12:12:03.622Z,90240
2017-04-26T12:13:13.584Z,77408
2017-04-26T12:14:23.560Z,74624
2017-04-26T12:15:33.518Z,87936
2017-04-26T12:16:43.796Z,86496
2017-04-26T12:17:54.077Z,79712
2017-04-26T12:19:04.354Z,64960
2017-04-26T12:20:14.314Z,85888
2017-04-26T12:21:24.594Z,85472
2017-04-26T12:22:34.878Z,85504
2017-04-26T12:23:44.841Z,84288
2017-04-26T12:24:55.115Z,86464
2017-04-26T12:26:05.107Z,86976
2017-04-26T12:27:14.766Z,85888
2017-04-26T12:28:25.048Z,79104
2017-04-26T12:29:35.325Z,80896
2017-04-26T12:30:45.600Z,83104
2017-04-26T12:31:55.876Z,83648
2017-04-26T12:33:06.160Z,85216
2017-04-26T12:34:15.500Z,45440
2017-04-26T12:35:25.466Z,82272
2017-04-26T12:36:35.430Z,77824
2017-04-26T12:37:45.710Z,82176
2017-04-26T12:38:55.674Z,83520
2017-04-26T12:40:05.959Z,79040
2017-04-26T12:41:16.239Z,59968
2017-04-26T12:42:26.511Z,82944
2017-04-26T12:43:36.786Z,88224
2017-04-26T12:44:47.063Z,86560
2017-04-26T12:45:57.338Z,87712
2017-04-26T12:47:07.297Z,86240
2017-04-26T12:48:17.263Z,84096
2017-04-26T12:49:27.573Z,84864
2017-04-26T12:50:37.858Z,82944
2017-04-26T12:51:48.143Z,83264
2017-04-26T12:52:58.423Z,87424
2017-04-26T12:54:08.711Z,83936
2017-04-26T12:55:18.368Z,81600
2017-04-26T12:56:28.654Z,88416
2017-04-26T12:57:38.945Z,91936
2017-04-26T12:58:48.909Z,86976
2017-04-26T12:59:59.186Z,87776
2017-04-26T13:01:09.466Z,90688
2017-04-26T13:02:19.120Z,87680
2017-04-26T13:03:29.402Z,92768
2017-04-26T13:04:39.682Z,94464
2017-04-26T13:05:49.964Z,96864
2017-04-26T13:07:00.247Z,92800
2017-04-26T13:08:10.534Z,91264
2017-04-26T13:09:20.817Z,92704
2017-04-26T13:10:31.099Z,87904
2017-04-26T13:11:41.387Z,79680
2017-04-26T13:12:51.669Z,81120
2017-04-26T13:14:01.956Z,74848
2017-04-26T13:15:12.246Z,69376
2017-04-26T13:16:22.529Z,55040
2017-04-26T13:17:32.816Z,65248
2017-04-26T13:18:43.104Z,62144
2017-04-26T13:19:53.390Z,59456
2017-04-26T13:21:03.671Z,54176
2017-04-26T13:22:13.958Z,62848
2017-04-26T13:23:24.239Z,77312
2017-04-26T13:24:34.521Z,88832
2017-04-26T13:25:44.794Z,90944
2017-04-26T13:26:55.075Z,90368
2017-04-26T13:28:05.362Z,99360
2017-04-26T13:29:15.352Z,47040
2017-04-26T13:30:25.316Z,83072
2017-04-26T13:31:35.627Z,100992
2017-04-26T13:32:45.914Z,95008
2017-04-26T13:33:56.196Z,85184
2017-04-26T13:35:06.484Z,42144
2017-04-26T13:36:16.757Z,94784
2017-04-26T13:37:26.724Z,89344
2017-04-26T13:38:36.694Z,87808
2017-04-26T13:39:46.972Z,89440
2017-04-26T13:40:57.252Z,78752
2017-04-26T13:42:07.220Z,51104
2017-04-26T13:43:17.501Z,80768
2017-04-26T13:44:27.781Z,72672
2017-04-26T13:45:38.084Z,63616
2017-04-26T13:46:48.363Z,75168
2017-04-26T13:47:58.650Z,39168
2017-04-26T13:49:08.930Z,21280
2017-04-26T13:50:19.208Z,17536
2017-04-26T13:51:29.500Z,14008
2017-04-26T13:52:39.775Z,13484
2017-04-26T13:53:50.052Z,16704
2017-04-26T13:55:00.332Z,34496
2017-04-26T13:56:10.615Z,15280
2017-04-26T13:57:20.891Z,10544
2017-04-26T13:58:31.164Z,9828
2017-04-26T13:59:41.439Z,9248
2017-04-26T14:00:51.714Z,10024
2017-04-26T14:02:01.986Z,9564
2017-04-26T14:03:12.252Z,11888
2017-04-26T14:04:21.582Z,9868
2017-04-26T14:05:31.850Z,9536
2017-04-26T14:06:42.114Z,9420
2017-04-26T14:07:52.390Z,9464
2017-04-26T14:09:02.651Z,9508
2017-04-26T14:10:12.923Z,9364
2017-04-26T14:11:23.187Z,9268
2017-04-26T14:12:33.144Z,9252
2017-04-26T14:13:43.400Z,9296
2017-04-26T14:14:53.668Z,9384
2017-04-26T14:16:03.925Z,9356
2017-04-26T14:17:14.196Z,9340
2017-04-26T14:18:23.835Z,9620
2017-04-26T14:19:33.468Z,10068
2017-04-26T14:20:43.738Z,10360
2017-04-26T14:21:53.999Z,10200
2017-04-26T14:23:04.269Z,9728
2017-04-26T14:24:14.529Z,9332
2017-04-26T14:25:24.474Z,9260
2017-04-26T14:26:34.729Z,9464
2017-04-26T14:27:44.986Z,9832
2017-04-26T14:28:55.245Z,10436
2017-04-26T14:30:04.879Z,11236
2017-04-26T14:31:15.132Z,12068
2017-04-26T14:32:25.395Z,12312
2017-04-26T14:33:35.654Z,11828
2017-04-26T14:34:45.919Z,10800
2017-04-26T14:35:55.555Z,9656
2017-04-26T14:37:05.814Z,8868
2017-04-26T14:38:16.077Z,8268
2017-04-26T14:39:26.341Z,7624
2017-04-26T14:40:36.605Z,6972
2017-04-26T14:41:46.865Z,6372
2017-04-26T14:42:57.124Z,5920
2017-04-26T14:44:07.382Z,5796
2017-04-26T14:45:17.328Z,5756
2017-04-26T14:46:27.591Z,5836
2017-04-26T14:47:37.849Z,6032
2017-04-26T14:48:48.111Z,6232
2017-04-26T14:49:58.371Z,6360
2017-04-26T14:51:08.628Z,6712
2017-04-26T14:52:18.577Z,7216
2017-04-26T14:53:28.849Z,7716
2017-04-26T14:54:39.137Z,8300
2017-04-26T14:55:49.397Z,9716
2017-04-26T14:56:59.653Z,13860
2017-04-26T14:58:09.906Z,25824
2017-04-26T14:59:19.538Z,36480
2017-04-26T15:00:29.798Z,74016
2017-04-26T15:01:40.065Z,78528
2017-04-26T15:02:50.323Z,77984
2017-04-26T15:04:00.306Z,72256
2017-04-26T15:05:10.258Z,71232
2017-04-26T15:06:20.212Z,72864
2017-04-26T15:07:30.474Z,70944
2017-04-26T15:08:40.736Z,71392
2017-04-26T15:09:50.997Z,68000
2017-04-26T15:11:00.954Z,61952
2017-04-26T15:12:10.909Z,61120
2017-04-26T15:13:20.555Z,44064
2017-04-26T15:14:30.509Z,45120
2017-04-26T15:15:40.781Z,59712
2017-04-26T15:16:51.046Z,55360
2017-04-26T15:18:00.996Z,53632
2017-04-26T15:19:11.269Z,40672
2017-04-26T15:20:21.535Z,33632
2017-04-26T15:21:31.799Z,31456
2017-04-26T15:22:42.073Z,37024
2017-04-26T15:23:52.337Z,20800
2017-04-26T15:25:02.612Z,20256
2017-04-26T15:26:12.891Z,40576
2017-04-26T15:27:23.160Z,58848
2017-04-26T15:28:33.433Z,49440
2017-04-26T15:29:43.387Z,43104
2017-04-26T15:30:53.654Z,49120
2017-04-26T15:32:03.926Z,51456
2017-04-26T15:33:14.194Z,44576
2017-04-26T15:34:24.454Z,37536
2017-04-26T15:35:34.713Z,46528
2017-04-26T15:36:44.977Z,43680
2017-04-26T15:37:54.937Z,37536
2017-04-26T15:39:05.201Z,32896
2017-04-26T15:40:15.473Z,39136
2017-04-26T15:41:25.747Z,28160
2017-04-26T15:42:35.710Z,30016
2017-04-26T15:43:45.980Z,26560
2017-04-26T15:44:56.253Z,20896
2017-04-26T15:46:06.515Z,20032